createdAt,value
2022-11-29T00:00:30.078Z,2.65
2022-11-29T00:02:56.622Z,2.79
2022-11-29T00:05:23.037Z,2.44
2022-11-29T00:07:49.411Z,2.40
2022-11-29T00:10:15.824Z,2.55
2022-11-29T00:12:42.189Z,2.68
2022-11-29T00:15:08.561Z,2.71
2022-11-29T00:17:34.899Z,2.70
2022-11-29T00:20:01.271Z,2.94
2022-11-29T00:22:27.961Z,3.27
2022-11-29T00:25:02.144Z,5.50
2022-11-29T00:27:28.861Z,6.44
2022-11-29T00:29:55.260Z,6.37
2022-11-29T00:32:21.732Z,6.49
2022-11-29T00:34:48.227Z,5.10
2022-11-29T00:37:14.601Z,4.95
2022-11-29T00:39:40.983Z,4.66
2022-11-29T00:42:08.117Z,4.71
2022-11-29T00:44:34.517Z,4.15
2022-11-29T00:47:00.853Z,4.27
2022-11-29T00:49:27.242Z,3.66
2022-11-29T00:51:53.590Z,3.36
2022-11-29T00:54:19.913Z,3.21
2022-11-29T00:56:46.252Z,3.08
2022-11-29T00:59:12.619Z,3.13
2022-11-29T01:01:39.035Z,2.99
2022-11-29T01:04:05.406Z,2.77
2022-11-29T01:06:31.792Z,2.76
2022-11-29T01:08:58.171Z,2.83
2022-11-29T01:11:24.592Z,3.01
2022-11-29T01:13:50.934Z,3.01
2022-11-29T01:16:17.286Z,2.85
2022-11-29T01:18:43.763Z,2.86
2022-11-29T01:21:10.147Z,2.77
2022-11-29T01:23:36.491Z,3.13
2022-11-29T01:26:02.823Z,3.16
2022-11-29T01:31:13.160Z,3.07
2022-11-29T01:33:39.583Z,3.57
2022-11-29T01:36:05.910Z,3.91
2022-11-29T01:38:32.242Z,3.44
2022-11-29T01:40:58.622Z,3.82
2022-11-29T01:43:25.005Z,3.33
2022-11-29T01:45:51.410Z,3.18
2022-11-29T01:48:17.813Z,3.18
2022-11-29T01:50:44.194Z,3.13
2022-11-29T01:53:10.565Z,3.04
2022-11-29T01:55:36.979Z,3.10
2022-11-29T01:58:12.474Z,3.13
2022-11-29T02:00:38.813Z,3.34
2022-11-29T02:03:05.134Z,3.49
2022-11-29T02:05:31.453Z,3.06
2022-11-29T02:07:57.886Z,2.75
2022-11-29T02:10:24.269Z,3.03
2022-11-29T02:12:50.633Z,3.22
2022-11-29T02:15:17.026Z,3.47
2022-11-29T02:17:43.362Z,3.44
2022-11-29T02:20:09.674Z,3.39
2022-11-29T02:22:36.041Z,3.48
2022-11-29T02:25:02.416Z,3.78
2022-11-29T02:27:28.751Z,3.62
2022-11-29T02:29:55.130Z,3.46
2022-11-29T02:32:21.475Z,3.52
2022-11-29T02:34:47.842Z,3.35
2022-11-29T02:37:14.256Z,3.40
2022-11-29T02:39:40.587Z,3.60
2022-11-29T02:42:06.969Z,3.64
2022-11-29T02:44:33.314Z,3.56
2022-11-29T02:46:59.721Z,3.50
2022-11-29T02:49:26.121Z,3.65
2022-11-29T02:51:52.504Z,3.46
2022-11-29T02:54:18.846Z,3.29
2022-11-29T02:56:45.213Z,3.50
2022-11-29T02:59:11.593Z,3.51
2022-11-29T03:01:37.963Z,3.38
2022-11-29T03:04:04.311Z,3.24
2022-11-29T03:06:30.631Z,3.39
2022-11-29T03:08:57.024Z,3.51
2022-11-29T03:11:23.387Z,3.29
2022-11-29T03:13:49.763Z,3.29
2022-11-29T03:16:16.147Z,3.62
2022-11-29T03:18:42.532Z,3.72
2022-11-29T03:21:08.888Z,3.50
2022-11-29T03:23:35.258Z,3.28
2022-11-29T03:26:01.645Z,3.63
2022-11-29T03:28:28.016Z,3.36
2022-11-29T03:30:54.481Z,3.46
2022-11-29T03:33:20.840Z,3.25
2022-11-29T03:35:47.162Z,3.28
2022-11-29T03:38:13.493Z,3.32
2022-11-29T03:40:39.876Z,3.31
2022-11-29T03:43:06.214Z,3.38
2022-11-29T03:45:32.538Z,3.68
2022-11-29T03:47:58.929Z,3.61
2022-11-29T03:50:25.270Z,3.35
2022-11-29T03:52:51.614Z,3.48
2022-11-29T03:55:17.998Z,3.45
2022-11-29T03:57:44.898Z,3.43
2022-11-29T04:00:11.291Z,3.36
2022-11-29T04:02:37.717Z,3.41
2022-11-29T04:05:04.116Z,3.25
2022-11-29T04:07:30.536Z,3.12
2022-11-29T04:09:56.890Z,3.16
2022-11-29T04:12:23.283Z,3.26
2022-11-29T04:14:49.638Z,3.30
2022-11-29T04:17:15.966Z,3.10
2022-11-29T04:19:42.311Z,3.21
2022-11-29T04:22:08.645Z,3.17
2022-11-29T04:24:34.978Z,3.01
2022-11-29T04:27:01.318Z,3.32
2022-11-29T04:29:27.681Z,2.87
2022-11-29T04:31:54.867Z,3.18
2022-11-29T04:34:21.195Z,3.52
2022-11-29T04:36:47.576Z,3.25
2022-11-29T04:39:13.967Z,3.34
2022-11-29T04:41:40.349Z,3.49
2022-11-29T04:44:06.702Z,3.38
2022-11-29T04:46:33.115Z,3.28
2022-11-29T04:48:59.506Z,3.11
2022-11-29T04:51:25.927Z,3.39
2022-11-29T04:53:52.310Z,3.28
2022-11-29T04:56:18.681Z,3.51
2022-11-29T04:58:45.028Z,3.65
2022-11-29T05:01:11.455Z,3.85
2022-11-29T05:03:37.863Z,3.16
2022-11-29T05:06:04.240Z,3.09
2022-11-29T05:08:30.619Z,3.00
2022-11-29T05:10:56.990Z,3.12
2022-11-29T05:13:23.330Z,3.13
2022-11-29T05:15:49.732Z,3.24
2022-11-29T05:18:16.135Z,3.19
2022-11-29T05:20:42.513Z,4.53
2022-11-29T05:23:08.888Z,6.46
2022-11-29T05:25:35.267Z,4.47
2022-11-29T05:28:04.483Z,3.40
2022-11-29T05:30:34.909Z,3.33
2022-11-29T05:33:01.246Z,3.17
2022-11-29T05:35:27.612Z,3.17
2022-11-29T05:37:54.007Z,3.13
2022-11-29T05:40:20.382Z,3.00
2022-11-29T05:42:46.760Z,2.85
2022-11-29T05:45:13.169Z,2.82
2022-11-29T05:47:39.520Z,2.51
2022-11-29T05:50:05.899Z,2.60
2022-11-29T05:52:32.302Z,2.37
2022-11-29T05:54:58.658Z,2.09
2022-11-29T05:57:24.980Z,2.06
2022-11-29T05:59:51.349Z,1.89
2022-11-29T06:02:17.773Z,2.06
2022-11-29T06:04:44.339Z,2.22
2022-11-29T06:07:10.901Z,2.26
2022-11-29T06:09:37.261Z,2.17
2022-11-29T06:12:03.629Z,2.37
2022-11-29T06:14:29.971Z,6.39
2022-11-29T06:16:56.298Z,2.82
2022-11-29T06:19:22.726Z,2.32
2022-11-29T06:21:49.081Z,2.20
2022-11-29T06:24:15.411Z,2.41
2022-11-29T06:26:41.751Z,2.64
2022-11-29T06:29:08.079Z,3.00
2022-11-29T06:31:34.516Z,3.34
2022-11-29T06:34:00.944Z,3.49
2022-11-29T06:36:27.286Z,3.87
2022-11-29T06:38:53.657Z,3.30
2022-11-29T06:41:20.061Z,3.36
2022-11-29T06:43:46.416Z,3.16
2022-11-29T06:46:13.026Z,3.25
2022-11-29T06:48:39.423Z,3.93
2022-11-29T06:51:05.760Z,3.72
2022-11-29T06:53:32.146Z,3.54
2022-11-29T06:55:58.501Z,3.39
2022-11-29T06:58:24.873Z,3.25
2022-11-29T07:00:51.239Z,4.53
2022-11-29T07:03:17.660Z,4.76
2022-11-29T07:05:44.037Z,3.45
2022-11-29T07:08:10.421Z,3.36
2022-11-29T07:10:36.812Z,3.70
2022-11-29T07:13:03.198Z,3.62
2022-11-29T07:15:29.578Z,3.46
2022-11-29T07:17:55.928Z,3.73
2022-11-29T07:20:22.335Z,3.93
2022-11-29T07:22:48.714Z,3.75
2022-11-29T07:25:15.094Z,3.74
2022-11-29T07:27:41.478Z,3.97
2022-11-29T07:30:07.884Z,4.07
2022-11-29T07:32:34.266Z,4.68
2022-11-29T07:35:00.631Z,5.16
2022-11-29T07:37:27.080Z,5.87
2022-11-29T07:39:53.586Z,5.46
2022-11-29T07:42:19.940Z,4.85
2022-11-29T07:44:46.494Z,4.48
2022-11-29T07:47:16.340Z,4.44
2022-11-29T07:49:42.727Z,4.44
2022-11-29T07:52:09.067Z,5.54
2022-11-29T07:54:35.834Z,7.44
2022-11-29T07:57:02.282Z,5.91
2022-11-29T07:59:28.623Z,5.41
2022-11-29T08:01:55.091Z,13.61
2022-11-29T08:04:21.469Z,11.55
2022-11-29T08:06:47.860Z,8.92
2022-11-29T08:09:14.234Z,6.46
2022-11-29T08:11:40.621Z,7.49
2022-11-29T08:14:06.974Z,4.98
2022-11-29T08:16:33.396Z,4.21
2022-11-29T08:18:59.818Z,4.01
2022-11-29T08:21:26.152Z,3.69
2022-11-29T08:23:52.492Z,3.88
2022-11-29T08:26:18.881Z,3.96
2022-11-29T08:28:45.217Z,4.36
2022-11-29T08:31:11.651Z,4.09
2022-11-29T08:33:38.018Z,4.38
2022-11-29T08:36:04.392Z,4.47
2022-11-29T08:38:30.773Z,4.53
2022-11-29T08:40:57.150Z,4.79
2022-11-29T08:43:23.496Z,4.51
2022-11-29T08:45:49.899Z,4.13
2022-11-29T08:48:16.323Z,4.11
2022-11-29T08:50:42.711Z,4.72
2022-11-29T08:53:09.107Z,4.45
2022-11-29T08:55:35.497Z,4.95
2022-11-29T08:58:01.880Z,5.57
2022-11-29T09:00:28.273Z,5.24
2022-11-29T09:02:54.619Z,5.79
2022-11-29T09:05:20.987Z,6.18
2022-11-29T09:07:47.387Z,6.83
2022-11-29T09:10:13.814Z,6.94
2022-11-29T09:12:40.203Z,7.02
2022-11-29T09:15:06.605Z,6.47
2022-11-29T09:17:32.993Z,6.03
2022-11-29T09:19:59.333Z,5.86
2022-11-29T09:22:25.663Z,5.54
2022-11-29T09:24:52.039Z,5.57
2022-11-29T09:27:18.416Z,5.15
2022-11-29T09:29:44.772Z,4.90
2022-11-29T09:32:11.148Z,5.59
2022-11-29T09:34:37.573Z,5.70
2022-11-29T09:37:03.972Z,5.13
2022-11-29T09:39:30.312Z,5.00
2022-11-29T09:41:56.646Z,5.10
2022-11-29T09:44:22.989Z,5.16
2022-11-29T09:46:52.258Z,5.08
2022-11-29T09:49:22.180Z,4.95
2022-11-29T09:51:48.542Z,4.72
2022-11-29T09:54:14.935Z,4.99
2022-11-29T09:56:41.330Z,4.62
2022-11-29T09:59:07.722Z,3.90
2022-11-29T10:01:34.106Z,2.91
2022-11-29T10:04:00.488Z,3.21
2022-11-29T10:06:26.868Z,2.77
2022-11-29T10:08:53.241Z,2.23
2022-11-29T10:11:19.611Z,1.57
2022-11-29T10:13:45.999Z,1.87
2022-11-29T10:16:12.428Z,1.69
2022-11-29T10:18:38.811Z,1.83
2022-11-29T10:21:05.205Z,1.82
2022-11-29T10:23:31.569Z,2.17
2022-11-29T10:25:57.958Z,2.84
2022-11-29T10:28:24.295Z,3.12
2022-11-29T10:30:50.710Z,3.66
2022-11-29T10:33:17.102Z,3.54
2022-11-29T10:35:43.443Z,3.50
2022-11-29T10:40:56.134Z,3.93
2022-11-29T10:43:22.556Z,3.66
2022-11-29T10:45:50.195Z,3.54
2022-11-29T10:48:16.741Z,3.41
2022-11-29T10:50:43.075Z,3.38
2022-11-29T10:53:09.451Z,2.88
2022-11-29T10:55:35.809Z,2.40
2022-11-29T10:58:02.183Z,1.63
2022-11-29T11:00:28.542Z,1.49
2022-11-29T11:02:56.006Z,1.23
2022-11-29T11:05:22.414Z,1.33
2022-11-29T11:07:48.799Z,1.75
2022-11-29T11:10:15.331Z,1.50
2022-11-29T11:12:41.760Z,1.45
2022-11-29T11:15:08.148Z,1.59
2022-11-29T11:17:34.531Z,1.69
2022-11-29T11:20:00.934Z,1.90
2022-11-29T11:22:27.395Z,2.57
2022-11-29T11:24:53.754Z,2.47
2022-11-29T11:27:20.130Z,2.48
2022-11-29T11:29:46.487Z,2.64
2022-11-29T11:32:12.879Z,2.39
2022-11-29T11:34:39.224Z,2.21
2022-11-29T11:37:05.555Z,2.17
2022-11-29T11:39:31.948Z,2.29
2022-11-29T11:41:58.385Z,2.21
2022-11-29T11:44:58.292Z,2.29
2022-11-29T11:47:11.123Z,2.21
2022-11-29T11:49:37.565Z,2.32
2022-11-29T11:52:03.960Z,2.50
2022-11-29T11:54:30.374Z,2.21
2022-11-29T11:56:56.728Z,2.11
2022-11-29T11:59:23.123Z,2.40
2022-11-29T12:01:49.515Z,2.24
2022-11-29T12:04:15.897Z,3.12
2022-11-29T12:06:42.286Z,2.83
2022-11-29T12:09:08.688Z,3.23
2022-11-29T12:11:35.040Z,3.64
2022-11-29T12:14:01.394Z,3.22
2022-11-29T12:16:27.716Z,3.35
2022-11-29T12:18:54.131Z,3.48
2022-11-29T12:21:20.475Z,3.69
2022-11-29T12:23:46.817Z,3.83
2022-11-29T12:26:19.295Z,3.84
2022-11-29T12:28:59.643Z,3.88
2022-11-29T12:31:26.067Z,3.68
2022-11-29T12:33:52.432Z,3.37
2022-11-29T12:36:18.837Z,3.69
2022-11-29T12:38:45.295Z,3.63
2022-11-29T12:41:11.686Z,3.91
2022-11-29T12:43:38.084Z,3.69
2022-11-29T12:46:04.530Z,3.91
2022-11-29T12:48:30.910Z,4.42
2022-11-29T12:50:57.286Z,4.73
2022-11-29T12:53:27.259Z,4.49
2022-11-29T12:55:54.115Z,4.17
2022-11-29T12:58:20.506Z,4.02
2022-11-29T13:00:46.882Z,3.20
2022-11-29T13:03:13.325Z,2.94
2022-11-29T13:05:39.755Z,2.91
2022-11-29T13:08:06.106Z,2.59
2022-11-29T13:10:32.470Z,2.52
2022-11-29T13:12:58.869Z,2.05
2022-11-29T13:15:25.222Z,2.15
2022-11-29T13:17:51.555Z,2.22
2022-11-29T13:20:17.889Z,2.39
2022-11-29T13:22:44.252Z,2.37
2022-11-29T13:25:10.606Z,2.36
2022-11-29T13:27:36.950Z,2.29
2022-11-29T13:30:03.281Z,2.29
2022-11-29T13:32:29.647Z,2.51
2022-11-29T13:34:55.993Z,3.02
2022-11-29T13:37:22.369Z,3.42
2022-11-29T13:39:48.723Z,3.60
2022-11-29T13:42:15.088Z,4.42
2022-11-29T13:44:41.500Z,4.56
2022-11-29T13:47:07.889Z,4.14
2022-11-29T13:49:34.266Z,3.92
2022-11-29T13:52:00.657Z,4.12
2022-11-29T13:54:27.048Z,3.72
2022-11-29T13:56:53.425Z,3.38
2022-11-29T13:59:19.835Z,3.19
2022-11-29T14:01:46.235Z,2.92
2022-11-29T14:04:12.589Z,3.29
2022-11-29T14:06:38.960Z,3.69
2022-11-29T14:09:20.655Z,3.76
2022-11-29T14:11:47.026Z,4.24
2022-11-29T14:14:13.402Z,4.14
2022-11-29T14:16:39.729Z,3.85
2022-11-29T14:19:06.097Z,4.16
2022-11-29T14:21:32.483Z,3.96
2022-11-29T14:23:58.848Z,3.73
2022-11-29T14:26:28.234Z,3.55
2022-11-29T14:28:55.039Z,3.65
2022-11-29T14:31:21.378Z,3.53
2022-11-29T14:33:47.785Z,4.78
2022-11-29T14:36:14.158Z,6.21
2022-11-29T14:38:40.517Z,3.87
2022-11-29T14:41:06.851Z,3.74
2022-11-29T14:43:33.226Z,3.78
2022-11-29T14:45:59.628Z,3.69
2022-11-29T14:48:25.977Z,3.41
2022-11-29T14:50:52.327Z,3.00
2022-11-29T14:53:18.698Z,2.70
2022-11-29T14:55:45.082Z,2.37
2022-11-29T14:58:11.461Z,2.31
2022-11-29T15:00:37.856Z,2.24
2022-11-29T15:03:04.232Z,2.26
2022-11-29T15:05:30.618Z,2.08
2022-11-29T15:07:56.994Z,2.01
2022-11-29T15:10:23.347Z,2.02
2022-11-29T15:12:49.717Z,2.01
2022-11-29T15:15:16.080Z,2.09
2022-11-29T15:17:42.418Z,1.79
2022-11-29T15:20:08.822Z,1.61
2022-11-29T15:22:35.207Z,1.83
2022-11-29T15:25:01.566Z,1.72
2022-11-29T15:27:27.897Z,1.79
2022-11-29T15:29:54.271Z,1.91
2022-11-29T15:32:20.620Z,1.75
2022-11-29T15:34:47.143Z,1.94
2022-11-29T15:37:13.680Z,1.84
2022-11-29T15:39:40.023Z,2.08
2022-11-29T15:42:06.355Z,2.20
2022-11-29T15:44:32.762Z,2.36
2022-11-29T15:46:59.139Z,2.41
2022-11-29T15:49:25.525Z,2.18
2022-11-29T15:51:51.866Z,2.37
2022-11-29T15:54:18.197Z,2.32
2022-11-29T15:56:44.594Z,3.27
2022-11-29T15:59:10.942Z,6.00
2022-11-29T16:01:37.292Z,2.53
2022-11-29T16:04:03.674Z,2.39
2022-11-29T16:06:30.033Z,2.41
2022-11-29T16:08:56.386Z,2.39
2022-11-29T16:11:25.091Z,2.48
2022-11-29T16:13:51.457Z,2.52
2022-11-29T16:16:17.881Z,2.42
2022-11-29T16:18:44.238Z,3.10
2022-11-29T16:21:10.597Z,2.80
2022-11-29T16:23:36.991Z,2.73
2022-11-29T16:26:03.379Z,2.81
2022-11-29T16:28:29.739Z,3.07
2022-11-29T16:30:56.114Z,2.70
2022-11-29T16:33:22.509Z,3.28
2022-11-29T16:35:48.912Z,3.68
2022-11-29T16:38:15.282Z,5.51
2022-11-29T16:40:41.658Z,11.15
2022-11-29T16:43:08.038Z,5.47
2022-11-29T16:45:34.520Z,5.82
2022-11-29T16:48:00.969Z,4.53
2022-11-29T16:50:27.351Z,4.67
2022-11-29T16:52:56.756Z,6.29
2022-11-29T16:55:23.583Z,6.16
2022-11-29T16:57:50.622Z,5.84
2022-11-29T17:00:17.052Z,6.37
2022-11-29T17:02:43.476Z,7.32
2022-11-29T17:05:09.922Z,7.35
2022-11-29T17:07:36.326Z,7.56
2022-11-29T17:10:02.736Z,9.19
2022-11-29T17:12:29.143Z,9.94
2022-11-29T17:14:55.482Z,12.68
2022-11-29T17:17:21.857Z,7.67
2022-11-29T17:19:48.185Z,9.11
2022-11-29T17:22:14.573Z,5.64
2022-11-29T17:24:46.182Z,3.97
2022-11-29T17:27:14.026Z,4.64
2022-11-29T17:29:40.359Z,5.74
2022-11-29T17:32:06.730Z,7.67
2022-11-29T17:34:33.107Z,7.11
2022-11-29T17:36:59.428Z,4.59
2022-11-29T17:39:25.802Z,3.99
2022-11-29T17:41:52.153Z,4.56
2022-11-29T17:44:18.490Z,4.14
2022-11-29T17:46:44.848Z,5.72
2022-11-29T17:49:11.188Z,5.22
2022-11-29T17:51:53.599Z,7.96
2022-11-29T17:54:20.336Z,6.55
2022-11-29T17:56:46.847Z,7.64
2022-11-29T17:59:13.184Z,8.50
2022-11-29T18:01:39.601Z,8.06
2022-11-29T18:04:05.999Z,9.48
2022-11-29T18:06:32.338Z,6.67
2022-11-29T18:08:58.675Z,8.52
2022-11-29T18:11:25.058Z,7.17
2022-11-29T18:13:51.451Z,7.43
2022-11-29T18:16:17.885Z,7.10
2022-11-29T18:18:44.285Z,4.80
2022-11-29T18:21:10.628Z,4.84
2022-11-29T18:23:37.029Z,6.46
2022-11-29T18:26:03.351Z,7.76
2022-11-29T18:28:29.687Z,7.39
2022-11-29T18:30:56.079Z,5.26
2022-11-29T18:33:22.419Z,5.11
2022-11-29T18:35:48.749Z,5.79
2022-11-29T18:38:16.324Z,5.74
2022-11-29T18:40:42.970Z,8.50
2022-11-29T18:43:09.317Z,9.45
2022-11-29T18:45:35.653Z,6.62
2022-11-29T18:48:01.987Z,6.02
2022-11-29T18:50:28.421Z,8.01
2022-11-29T18:52:54.797Z,9.69
2022-11-29T18:55:21.138Z,10.33
2022-11-29T18:57:47.515Z,9.74
2022-11-29T19:00:13.876Z,11.52
2022-11-29T19:02:40.345Z,8.56
2022-11-29T19:05:06.771Z,10.31
2022-11-29T19:07:33.207Z,8.92
2022-11-29T19:09:59.686Z,9.98
2022-11-29T19:12:26.068Z,10.61
2022-11-29T19:14:52.617Z,9.75
2022-11-29T19:17:19.220Z,10.70
2022-11-29T19:19:45.775Z,8.92
2022-11-29T19:22:12.267Z,6.24
2022-11-29T19:24:38.645Z,6.66
2022-11-29T19:27:05.012Z,5.51
2022-11-29T19:29:35.216Z,5.39
2022-11-29T19:32:04.767Z,5.46
2022-11-29T19:34:31.151Z,5.50
2022-11-29T19:36:57.516Z,5.44
2022-11-29T19:39:23.867Z,6.04
2022-11-29T19:41:50.232Z,6.09
2022-11-29T19:44:16.629Z,5.92
2022-11-29T19:46:42.971Z,5.99
2022-11-29T19:49:09.299Z,6.45
2022-11-29T19:51:35.855Z,6.46
2022-11-29T19:54:02.296Z,5.95
2022-11-29T19:56:28.631Z,6.65
2022-11-29T19:58:54.999Z,7.02
2022-11-29T20:01:21.440Z,8.24
2022-11-29T20:03:47.854Z,9.45
2022-11-29T20:06:14.383Z,8.45
2022-11-29T20:08:40.722Z,9.18
2022-11-29T20:11:07.053Z,9.26
2022-11-29T20:13:33.377Z,9.22
2022-11-29T20:15:59.726Z,9.37
2022-11-29T20:18:26.058Z,11.52
2022-11-29T20:20:52.520Z,10.84
2022-11-29T20:23:18.913Z,12.44
2022-11-29T20:25:45.260Z,11.50
2022-11-29T20:28:11.650Z,10.77
2022-11-29T20:30:38.025Z,10.50
2022-11-29T20:33:04.370Z,11.44
2022-11-29T20:35:30.756Z,10.27
2022-11-29T20:37:57.149Z,9.48
2022-11-29T20:40:23.482Z,8.94
2022-11-29T20:42:49.854Z,8.77
2022-11-29T20:45:16.242Z,8.61
2022-11-29T20:47:42.575Z,8.57
2022-11-29T20:50:08.905Z,9.51
2022-11-29T20:52:35.254Z,10.72
2022-11-29T20:55:01.585Z,9.92
2022-11-29T20:57:27.916Z,9.10
2022-11-29T20:59:54.284Z,8.66
2022-11-29T21:02:20.671Z,8.50
2022-11-29T21:04:47.223Z,9.03
2022-11-29T21:07:13.889Z,8.78
2022-11-29T21:09:40.227Z,9.17
2022-11-29T21:12:06.582Z,8.96
2022-11-29T21:14:32.920Z,8.45
2022-11-29T21:16:59.271Z,8.55
2022-11-29T21:19:25.641Z,7.91
2022-11-29T21:21:51.984Z,8.12
2022-11-29T21:24:18.368Z,7.84
2022-11-29T21:26:44.745Z,8.01
2022-11-29T21:29:11.158Z,8.13
2022-11-29T21:31:37.586Z,7.80
2022-11-29T21:34:03.983Z,7.94
2022-11-29T21:36:30.401Z,8.14
2022-11-29T21:38:59.730Z,8.03
2022-11-29T21:41:28.561Z,8.20
2022-11-29T21:44:10.238Z,8.02
2022-11-29T21:46:36.700Z,8.17
2022-11-29T21:49:03.174Z,8.21
2022-11-29T21:51:29.520Z,7.74
2022-11-29T21:53:55.952Z,7.91
2022-11-29T21:56:22.370Z,7.65
2022-11-29T21:58:48.813Z,7.61
2022-11-29T22:01:15.315Z,7.17
2022-11-29T22:03:41.973Z,7.27
2022-11-29T22:06:08.357Z,7.08
2022-11-29T22:08:34.749Z,7.35
2022-11-29T22:11:01.103Z,7.06
2022-11-29T22:13:27.438Z,7.52
2022-11-29T22:15:53.867Z,7.92
2022-11-29T22:18:20.288Z,7.48
2022-11-29T22:20:46.628Z,7.41
2022-11-29T22:23:12.963Z,7.49
2022-11-29T22:25:39.303Z,7.42
2022-11-29T22:28:05.652Z,7.04
2022-11-29T22:30:32.030Z,6.70
2022-11-29T22:32:58.370Z,6.91
2022-11-29T22:35:24.753Z,6.64
2022-11-29T22:37:51.128Z,7.20
2022-11-29T22:40:17.527Z,7.66
2022-11-29T22:42:43.915Z,7.22
2022-11-29T22:45:10.304Z,7.59
2022-11-29T22:47:36.694Z,7.40
2022-11-29T22:50:03.036Z,8.17
2022-11-29T22:52:29.512Z,8.14
2022-11-29T22:54:59.915Z,8.19
2022-11-29T22:57:29.355Z,7.75
2022-11-29T22:59:55.692Z,7.75
2022-11-29T23:02:22.121Z,7.34
2022-11-29T23:04:48.806Z,7.56
2022-11-29T23:07:15.357Z,7.79
2022-11-29T23:09:41.708Z,7.41
2022-11-29T23:12:08.031Z,6.98
2022-11-29T23:14:34.367Z,6.91
2022-11-29T23:17:00.734Z,7.04
2022-11-29T23:19:27.111Z,6.89
2022-11-29T23:21:53.447Z,6.65
2022-11-29T23:24:19.783Z,6.56
2022-11-29T23:26:46.149Z,6.93
2022-11-29T23:29:12.598Z,6.75
2022-11-29T23:31:39.029Z,6.71
2022-11-29T23:34:05.480Z,6.85
2022-11-29T23:36:31.935Z,7.19
2022-11-29T23:38:58.360Z,7.09
2022-11-29T23:41:24.743Z,7.77
2022-11-29T23:43:51.129Z,7.13
2022-11-29T23:46:17.567Z,7.09
2022-11-29T23:48:44.026Z,7.01
2022-11-29T23:51:10.413Z,7.03
2022-11-29T23:53:36.774Z,6.89
2022-11-29T23:56:03.102Z,6.65
2022-11-29T23:58:29.475Z,6.64
